Latest Weather Observations for Lord Howe Island

IDN60801

Issued at 3:35 am EDT Monday 24 November 2014 (issued every 30 minutes, with the page automatically refreshed every 10 minutes)

About weather observations | Map of weather stations | Latest weather observations for NSW | Other Formats
Station Details ID: 200839 Name: LORD HOWE ISLAND AERO Lat: -31.54 Lon: 159.08 Height: 5.0 m
Data from the previous 72 hours. | See also: Recent months at Lord Howe Island
Date/Time
EDT
Temp
°C
App
Temp
°C
Dew
Point
Rel
Hum
%
Delta-T
°C
Wind Press
QNH
hPa
Press
MSL
hPa
Rain
since 9 am
mm
Dir
 
Spd
km/h
Gust
km/h
Spd
kts
Gust
kts
24/03:30am 21.6 22.7 18.1 80 2.2 NNW 9 17 5 9 1019.1 - 0.0
24/03:00am 21.7 23.4 18.0 79 2.3 N 6 13 3 7 1019.4 1019.4 0.0
24/02:39am 21.6 23.3 18.4 82 2.0 ESE 7 15 4 8 1019.5 - 0.0
24/02:30am 21.7 23.4 18.5 82 2.0 SSW 7 17 4 9 1019.4 - 0.0
24/02:22am 21.7 23.4 18.5 82 2.0 ENE 7 17 4 9 1019.3 - 0.0
24/02:00am 21.7 23.0 18.5 82 2.0 NNE 9 20 5 11 1019.3 - 0.0
24/01:59am 21.6 23.0 18.6 83 1.9 NE 9 20 5 11 1019.3 - 0.0
24/01:30am 21.6 22.9 18.4 82 2.0 NE 9 19 5 10 1019.7 - 0.0
24/01:00am 21.7 23.5 18.8 83 1.8 N 7 15 4 8 1020.0 - 0.0
24/12:30am 21.7 23.2 19.0 84 1.7 NNE 9 24 5 13 1020.0 - 0.0
24/12:00am 21.7 23.2 19.0 84 1.7 NE 9 26 5 14 1020.0 1020.0 0.0
 
Date/Time
EDT
Temp
°C
App
Temp
°C
Dew
Point
Rel
Hum
%
Delta-T
°C
Wind Press
QNH
hPa
Press
MSL
hPa
Rain
since 9 am
mm
Dir
 
Spd
km/h
Gust
km/h
Spd
kts
Gust
kts
23/11:41pm 21.7 23.2 19.0 84 1.7 ENE 9 22 5 12 1020.1 - 0.0
23/11:30pm 21.8 22.9 18.8 83 1.9 N 11 19 6 10 1020.1 - 0.0
23/11:00pm 21.7 22.9 19.0 84 1.7 NNE 11 28 6 15 1019.9 - 0.0
23/10:30pm 21.7 22.0 18.8 83 1.8 NE 15 32 8 17 1020.0 - 0.0
23/10:00pm 21.8 21.5 19.1 84 1.7 NE 19 39 10 21 1019.8 - 0.0
23/09:30pm 21.8 23.0 19.1 84 1.7 NE 11 19 6 10 1020.1 - 0.0
23/09:00pm 21.9 23.2 19.2 85 1.7 NE 11 22 6 12 1019.9 1019.9 0.0
23/08:30pm 21.8 22.6 19.1 84 1.7 NE 13 28 7 15 1019.6 - 0.0
23/08:00pm 21.8 23.0 19.1 84 1.7 NNE 11 20 6 11 1019.2 - 0.0
23/07:30pm 21.8 21.9 19.1 84 1.7 NE 17 26 9 14 1019.0 - 0.0
23/07:00pm 22.0 22.0 19.0 83 1.9 NE 17 32 9 17 1018.8 - 0.0
23/06:30pm 22.4 23.9 18.9 80 2.2 NNE 9 17 5 9 1018.6 - 0.0
23/06:00pm 22.9 24.0 18.8 77 2.6 NE 11 19 6 10 1018.5 1018.5 0.0
23/05:30pm 23.1 23.7 18.7 76 2.8 NE 13 30 7 16 1018.4 - 0.0
23/05:00pm 23.7 25.2 18.8 74 3.1 N 9 19 5 10 1018.5 - 0.0
23/04:30pm 23.7 24.3 18.5 72 3.3 NNW 13 20 7 11 1019.0 - 0.0
23/04:00pm 23.9 24.5 18.5 72 3.4 N 13 24 7 13 1019.1 - 0.0
23/03:30pm 24.2 24.8 18.5 70 3.6 NNW 13 20 7 11 1019.2 - 0.0
23/03:00pm 24.1 24.5 18.2 69 3.7 NNW 13 20 7 11 1019.3 1019.3 0.0
23/02:30pm 24.6 24.0 18.4 68 3.9 N 19 30 10 16 1019.5 - 0.0
23/02:00pm 24.5 24.3 18.5 69 3.8 NNW 17 28 9 15 1019.5 - 0.0
23/01:30pm 24.4 23.6 18.0 67 4.0 N 19 30 10 16 1019.7 - 0.0
23/01:00pm 25.0 23.8 18.3 66 4.2 N 22 33 12 18 1019.9 - 0.0
23/12:30pm 25.2 24.3 17.7 63 4.7 N 19 30 10 16 1020.2 - 0.0
23/12:00pm 24.5 24.5 17.2 63 4.5 NW 13 20 7 11 1020.7 1020.7 0.0
23/11:30am 24.8 24.3 16.8 61 4.9 NNW 15 24 8 13 1020.6 - 0.0
23/11:00am 25.4 25.8 18.1 64 4.6 NNW 13 20 7 11 1020.6 - 0.0
23/10:30am 24.4 23.2 17.5 65 4.3 N 20 32 11 17 1020.6 - 0.0
23/10:00am 24.7 24.2 17.8 65 4.3 N 17 22 9 12 1020.5 - 0.0
23/09:30am 24.2 23.1 17.4 65 4.2 N 19 33 10 18 1020.5 - 0.0
23/09:00am 23.7 22.8 17.8 69 3.7 NNW 19 37 10 20 1020.2 1020.2 0.0
23/08:30am 23.9 23.8 17.8 68 3.8 N 15 28 8 15 1020.3 - 0.0
23/08:00am 23.1 22.1 17.6 71 3.4 N 19 32 10 17 1020.1 - 0.0
23/07:30am 22.9 22.5 17.2 70 3.5 N 15 28 8 15 1019.9 - 0.0
23/07:00am 22.3 22.1 17.6 75 2.9 NNW 15 26 8 14 1019.8 - 0.0
23/06:30am 22.4 22.4 17.2 72 3.2 N 13 20 7 11 1019.5 - 0.0
23/06:00am 21.8 22.4 17.6 77 2.6 N 11 19 6 10 1019.1 1019.1 0.0
23/05:30am 21.7 21.9 17.6 77 2.5 N 13 22 7 12 1018.8 - 0.0
23/05:00am 21.5 22.3 17.4 77 2.5 N 9 19 5 10 1018.6 - 0.0
23/04:30am 21.6 21.4 17.5 77 2.5 NNE 15 28 8 15 1018.4 - 0.0
23/04:00am 21.4 21.6 17.7 79 2.3 NNE 13 20 7 11 1018.5 - 0.0
23/03:30am 21.5 21.0 17.8 79 2.3 NNE 17 28 9 15 1018.4 - 0.0
23/03:00am 21.4 21.8 18.2 82 2.0 NNE 13 20 7 11 1018.5 1018.5 0.0
23/02:30am 21.4 21.9 18.4 83 1.9 NNE 13 22 7 12 1018.5 - 0.0
23/02:00am 21.5 22.5 18.6 83 1.8 NNE 11 17 6 9 1018.9 - 0.0
23/01:47am 21.5 22.3 19.0 86 1.6 NNE 13 24 7 13 1018.8 - 0.0
23/01:30am 21.6 22.7 18.9 84 1.7 NNE 11 15 6 8 1018.9 - 0.0
23/01:00am 21.7 22.9 19.0 84 1.7 NNE 11 20 6 11 1019.2 - 0.0
23/12:30am 21.6 23.2 19.1 86 1.6 NNE 9 20 5 11 1019.4 - 0.0
23/12:00am 21.7 22.9 19.0 84 1.7 NE 11 17 6 9 1019.5 1019.5 0.0
 
Date/Time
EDT
Temp
°C
App
Temp
°C
Dew
Point
Rel
Hum
%
Delta-T
°C
Wind Press
QNH
hPa
Press
MSL
hPa
Rain
since 9 am
mm
Dir
 
Spd
km/h
Gust
km/h
Spd
kts
Gust
kts
22/11:59pm 21.6 23.2 19.1 86 1.6 NE 9 17 5 9 1019.5 - 0.0
22/11:30pm 21.7 23.8 19.0 84 1.7 NNE 6 13 3 7 1019.7 - 0.0
22/11:00pm 21.6 23.2 19.1 86 1.6 NNE 9 13 5 7 1019.3 - 0.0
22/10:30pm 21.7 22.5 19.0 84 1.7 N 13 22 7 12 1019.5 - 0.0
22/10:00pm 21.9 23.0 18.9 83 1.9 N 11 19 6 10 1019.5 - 0.0
22/09:30pm 22.2 24.2 19.2 83 1.9 NNW 7 13 4 7 1019.8 - 0.0
22/09:00pm 22.3 24.8 19.0 81 2.1 NW 4 11 2 6 1019.6 1019.6 0.0
22/08:36pm 22.3 24.3 19.1 82 2.0 N 7 20 4 11 1019.3 - 0.0
22/08:30pm 22.3 23.9 19.1 82 2.0 N 9 20 5 11 1019.2 - 0.0
22/08:00pm 22.3 23.8 19.0 81 2.1 N 9 17 5 9 1018.7 - 0.0
22/07:30pm 22.3 24.4 19.0 81 2.1 NNE 6 13 3 7 1018.3 - 0.0
22/07:00pm 22.2 23.7 19.0 82 2.0 NNE 9 17 5 9 1017.8 - 0.0
22/06:30pm 22.5 24.2 19.4 82 2.0 NE 9 17 5 9 1017.6 - 0.0
22/06:00pm 22.7 24.0 19.4 81 2.1 NNE 11 22 6 12 1017.3 1017.3 0.0
22/05:30pm 22.9 23.1 19.4 80 2.2 NE 17 26 9 14 1017.0 - 0.0
22/05:02pm 23.1 22.8 19.5 80 2.3 NE 20 35 11 19 1017.0 - 0.0
22/05:00pm 23.2 22.8 19.4 79 2.4 NE 20 35 11 19 1017.0 - 0.0
22/04:30pm 24.1 24.2 19.2 74 3.1 NNE 17 24 9 13 1017.3 - 0.0
22/04:00pm 24.8 25.9 19.7 73 3.3 NNE 13 22 7 12 1017.3 - 0.0
22/03:30pm 25.2 25.6 19.8 72 3.5 NNE 17 30 9 16 1017.4 - 0.0
22/03:00pm 25.3 26.4 19.7 71 3.6 N 13 22 7 12 1017.5 1017.5 0.0
22/02:30pm 25.0 24.4 19.7 72 3.4 NNE 22 32 12 17 1017.8 - 0.0
22/02:00pm 25.0 25.9 19.2 70 3.7 N 13 20 7 11 1018.3 - 0.0
22/01:30pm 25.7 26.0 19.7 69 3.9 NNE 17 28 9 15 1018.5 - 0.0
22/01:00pm 25.5 26.7 19.8 70 3.7 N 13 24 7 13 1018.8 - 0.0
22/12:30pm 25.5 26.7 19.9 71 3.6 N 13 33 7 18 1019.0 - 0.0
22/12:00pm 25.7 26.6 20.0 71 3.7 N 15 22 8 12 1019.1 1019.1 0.0
22/11:30am 24.9 25.5 19.4 71 3.5 N 15 24 8 13 1019.2 - 0.0
22/11:17am 24.7 25.7 19.4 72 3.4 N 13 24 7 13 1019.2 - 0.0
22/11:06am 25.2 26.3 19.6 71 3.6 N 13 22 7 12 1019.3 - 0.0
22/11:00am 25.1 25.8 19.7 72 3.5 N 15 26 8 14 1019.3 - 0.0
22/10:30am 24.9 26.0 19.6 72 3.4 N 13 22 7 12 1019.2 - 0.0
22/10:06am 24.9 24.8 19.9 74 3.2 NE 20 32 11 17 1019.1 - 0.0
22/10:00am 24.8 26.7 19.7 73 3.3 N 9 15 5 8 1019.2 - 0.0
22/09:30am 23.6 24.0 19.0 75 2.9 N 15 28 8 15 1019.2 - 0.0
22/09:00am 24.3 25.6 19.3 73 3.2 NNE 11 22 6 12 1018.9 1018.9 0.0
22/08:34am 24.3 24.9 19.5 74 3.1 N 15 24 8 13 1019.0 - 0.0
22/08:30am 24.0 24.4 19.1 74 3.1 NNW 15 24 8 13 1019.1 - 0.0
22/08:00am 22.9 23.3 19.1 79 2.4 NE 15 28 8 15 1018.4 - 0.0
22/07:30am 22.7 23.8 18.9 79 2.4 NNE 11 19 6 10 1018.2 - 0.0
22/07:00am 22.6 24.5 19.0 80 2.3 NW 7 13 4 7 1018.3 - 0.0
22/06:30am 22.2 23.5 18.5 79 2.3 N 9 17 5 9 1017.9 - 0.0
22/06:07am 22.3 23.7 18.6 79 2.3 N 9 17 5 9 1017.4 - 0.0
22/06:00am 22.1 23.5 18.6 80 2.2 N 9 19 5 10 1017.5 1017.5 0.0
22/05:54am 22.0 23.7 18.5 80 2.2 N 7 19 4 10 1017.6 - 0.0
22/05:30am 21.8 23.1 18.4 81 2.1 NW 9 19 5 10 1017.2 - 0.0
22/05:00am 21.8 23.5 18.4 81 2.1 NNW 7 15 4 8 1017.1 - 0.0
22/04:30am 21.8 23.1 18.4 81 2.1 N 9 17 5 9 1016.7 - 0.0
22/04:00am 21.8 22.5 17.9 78 2.4 NW 11 17 6 9 1016.5 - 0.0
22/03:30am 21.8 22.7 18.3 80 2.2 NNE 11 28 6 15 1015.9 - 0.0
22/03:11am 21.8 23.0 18.3 80 2.2 NNE 9 20 5 11 1015.9 - 0.0
22/03:01am 21.9 23.2 18.4 80 2.2 N 9 19 5 10 1015.9 - 0.0
22/03:00am 21.9 23.2 18.4 80 2.2 N 9 22 5 12 1015.9 1015.9 0.0
22/02:35am 21.9 22.4 18.4 80 2.2 N 13 22 7 12 1015.8 - 0.0
22/02:30am 21.9 22.8 18.4 80 2.2 N 11 26 6 14 1015.9 - 0.0
22/02:13am 21.8 22.7 18.4 81 2.1 NNW 11 24 6 13 1016.1 - 0.0
22/02:00am 21.8 22.7 18.4 81 2.1 N 11 37 6 20 1016.2 - 0.0
22/01:56am 21.9 22.8 18.4 80 2.2 N 11 37 6 20 1016.2 - 0.0
22/01:35am 21.8 22.3 18.4 81 2.1 NE 13 20 7 11 1016.1 - 0.0
22/01:30am 21.8 21.9 18.3 80 2.2 NNE 15 24 8 13 1016.1 - 0.0
22/01:15am 21.9 21.9 18.2 79 2.3 N 15 32 8 17 1016.2 - 0.0
22/01:00am 21.9 23.0 18.0 78 2.4 NE 9 24 5 13 1016.3 - 0.0
22/12:30am 21.8 22.3 18.4 81 2.1 NE 13 26 7 14 1016.0 - 0.0
22/12:00am 21.9 21.4 18.7 82 2.0 NNE 19 32 10 17 1016.2 1016.2 0.0
 
Date/Time
EDT
Temp
°C
App
Temp
°C
Dew
Point
Rel
Hum
%
Delta-T
°C
Wind Press
QNH
hPa
Press
MSL
hPa
Rain
since 9 am
mm
Dir
 
Spd
km/h
Gust
km/h
Spd
kts
Gust
kts
21/11:43pm 21.9 21.3 18.5 81 2.1 NNE 19 35 10 19 1016.6 - 0.0
21/11:33pm 22.0 22.1 18.3 79 2.3 NNE 15 22 8 12 1016.8 - 0.0
21/11:30pm 21.9 22.5 18.7 82 2.0 NNE 13 26 7 14 1016.8 - 0.0
21/11:00pm 22.0 21.9 18.7 81 2.1 NNE 17 32 9 17 1017.0 - 0.0
21/10:30pm 22.0 21.6 18.8 82 2.0 NNE 19 33 10 18 1016.8 - 0.0
21/10:20pm 22.0 21.9 18.7 81 2.1 NNE 17 33 9 18 1017.0 - 0.0
21/10:00pm 22.1 21.7 18.8 81 2.1 N 19 35 10 19 1016.9 - 0.0
21/09:30pm 22.0 21.4 18.8 82 2.0 NNE 20 50 11 27 1016.6 - 0.0
21/09:00pm 22.1 21.7 18.9 82 2.0 NNE 19 35 10 19 1016.4 1016.4 0.0
21/08:30pm 22.1 21.5 18.9 82 2.0 NNE 20 32 11 17 1016.4 - 0.0
21/08:00pm 22.1 21.5 18.9 82 2.0 NNE 20 44 11 24 1016.7 - 0.0
21/07:30pm 22.1 22.9 19.1 83 1.9 N 13 26 7 14 1016.9 - 0.0
21/07:00pm 22.1 23.3 19.1 83 1.9 NNE 11 19 6 10 1017.2 - 0.0
21/06:30pm 22.4 24.2 18.7 79 2.3 NNE 7 13 4 7 1017.2 - 0.0
21/06:00pm 23.0 24.4 18.7 77 2.7 N 9 19 5 10 1017.1 1017.1 0.0
21/05:30pm 23.3 24.3 18.7 75 2.9 N 11 20 6 11 1017.1 - 0.0
21/05:16pm 23.2 24.1 18.4 74 3.0 NNW 11 24 6 13 1017.2 - 0.0
21/05:00pm 23.5 23.7 18.6 74 3.1 N 15 24 8 13 1017.1 - 0.0
21/04:56pm 23.9 24.5 18.7 72 3.3 N 13 22 7 12 1017.0 - 0.0
21/04:30pm 23.6 24.1 18.3 72 3.3 NNW 13 24 7 13 1016.9 - 0.0
21/04:00pm 23.3 23.3 18.0 72 3.3 NNW 15 26 8 14 1016.7 - 0.0
21/03:30pm 23.8 23.4 18.0 70 3.6 NNW 17 32 9 17 1016.5 - 0.0
21/03:00pm 23.8 22.9 17.7 68 3.8 NNW 19 33 10 18 1016.7 1016.7 0.0
21/02:30pm 24.4 24.2 17.7 66 4.2 NNW 15 30 8 16 1016.9 - 0.0
21/02:00pm 24.1 23.0 17.3 65 4.2 NNW 19 32 10 17 1017.3 - 0.0
21/01:30pm 24.7 24.5 17.5 64 4.5 N 15 26 8 14 1017.3 - 0.0
21/01:00pm 24.1 23.8 17.3 65 4.2 NNE 15 33 8 18 1017.9 - 0.0
21/12:30pm 24.7 24.5 17.6 64 4.4 NNE 15 35 8 19 1018.0 - 0.0
21/12:00pm 24.7 24.7 17.3 63 4.6 N 13 24 7 13 1018.4 1018.4 0.0
21/11:30am 23.7 22.7 16.5 64 4.4 N 17 24 9 13 1018.8 - 0.0
21/11:00am 23.7 22.9 16.1 62 4.6 NNW 15 39 8 21 1018.9 - 0.0
21/10:30am 23.4 22.3 16.3 64 4.3 NNE 17 32 9 17 1019.1 - 0.0
21/10:00am 23.6 22.4 16.2 63 4.5 N 17 37 9 20 1019.3 - 0.0
21/09:30am 23.5 23.1 16.1 63 4.5 N 13 20 7 11 1019.3 - 0.0
21/09:00am 23.6 23.1 15.8 61 4.7 NNE 13 28 7 15 1019.4 1019.4 0.0
21/08:30am 23.0 20.8 15.9 64 4.3 N 22 44 12 24 1019.3 - 0.0
21/08:00am 22.8 20.5 15.6 64 4.3 NNE 22 41 12 22 1019.0 - 0.0
21/07:30am 22.3 20.4 15.8 66 3.9 N 20 30 11 16 1018.8 - 0.0
21/07:00am 22.0 19.7 15.6 67 3.8 N 22 48 12 26 1018.7 - 0.0
21/06:30am 22.1 20.0 16.3 69 3.5 NNE 22 35 12 19 1018.7 - 0.0
21/06:00am 21.8 19.9 15.8 68 3.6 N 20 33 11 18 1018.6 1018.6 0.0
21/05:30am 21.4 19.3 16.1 72 3.2 NNE 22 35 12 19 1018.6 - 0.0
21/05:00am 21.3 19.5 16.1 72 3.1 N 20 41 11 22 1018.5 - 0.0
21/04:30am 21.4 19.6 16.1 72 3.2 N 20 35 11 19 1018.2 - 0.0
21/04:00am 21.3 20.1 16.1 72 3.1 NNE 17 41 9 22 1018.4 - 0.0

Other Formats:

Comma delimited format used in spreadsheet applications
http://www.bom.gov.au/fwo/IDN60801/IDN60801.94995.axf

JavaScript Object Notation format (JSON) in row-major order
http://www.bom.gov.au/fwo/IDN60801/IDN60801.94995.json